Lamesa, Texas
Current Conditions -  °F | °C
As of 10:15 AM on Friday 19 Dec 2014 (Local Time) from KGNC Reporting Station
Haze Haze  
Wind Chill: 38°   Ceiling: 200
Heat Index: 38°   Visibility: 0.75mi
Dew Point: 37°   Wind: 0mph
Humidity: 99%   Direction: NA
Pressure: 30.2"   Gusts: NA
Location:  32.74°N, 101.95°W
Report Text: KGNC 191615Z AUTO 00000KT 3/4SM BR OVC002 03/03 A3020 RMK AO2 T00310030
Loading
Personal Weather Stations






























Interactive Weather Map New forecast layout! Learn more

10-Day Weather Forecast

Advertisements
Track Severe Weather on mobile